createdAt,value
2019-02-03T00:01:43.116Z,16.13
2019-02-03T00:04:13.995Z,24.23
2019-02-03T00:06:45.184Z,10.90
2019-02-03T00:09:18.063Z,14.13
2019-02-03T00:11:48.922Z,26.33
2019-02-03T00:14:19.547Z,13.43
2019-02-03T00:16:51.350Z,22.20
2019-02-03T00:19:21.852Z,17.40
2019-02-03T00:21:52.967Z,10.53
2019-02-03T00:24:23.603Z,16.47
2019-02-03T00:26:54.338Z,17.03
2019-02-03T00:29:24.918Z,16.77
2019-02-03T00:31:57.040Z,23.00
2019-02-03T00:34:27.909Z,23.67
2019-02-03T00:36:58.405Z,21.73
2019-02-03T00:39:29.218Z,10.50
2019-02-03T00:42:00.478Z,18.73
2019-02-03T00:44:31.940Z,16.13
2019-02-03T00:47:03.793Z,16.50
2019-02-03T00:49:34.140Z,15.27
2019-02-03T00:52:04.568Z,15.10
2019-02-03T00:54:35.698Z,20.70
2019-02-03T00:57:08.353Z,27.70
2019-02-03T00:59:39.065Z,13.40
2019-02-03T01:02:09.533Z,11.30
2019-02-03T01:04:40.403Z,13.20
2019-02-03T01:07:11.103Z,18.73
2019-02-03T01:09:41.873Z,11.97
2019-02-03T01:12:12.318Z,11.33
2019-02-03T01:14:43.064Z,16.63
2019-02-03T01:17:13.504Z,11.80
2019-02-03T01:19:43.721Z,13.20
2019-02-03T01:22:14.533Z,15.20
2019-02-03T01:24:45.092Z,21.17
2019-02-03T01:27:15.801Z,15.37
2019-02-03T01:29:47.431Z,24.13
2019-02-03T01:32:18.085Z,24.87
2019-02-03T01:34:48.688Z,25.23
2019-02-03T01:37:19.169Z,15.67
2019-02-03T01:39:52.062Z,13.83
2019-02-03T01:42:22.708Z,8.20
2019-02-03T01:44:53.249Z,13.87
2019-02-03T01:47:24.701Z,14.40
2019-02-03T01:49:55.115Z,13.60
2019-02-03T01:52:25.163Z,12.40
2019-02-03T01:54:55.778Z,11.70
2019-02-03T01:57:26.077Z,14.60
2019-02-03T01:59:56.474Z,20.60
2019-02-03T02:02:27.147Z,16.73
2019-02-03T02:04:57.659Z,17.57
2019-02-03T02:07:28.440Z,19.03
2019-02-03T02:09:58.687Z,14.50
2019-02-03T02:12:29.136Z,17.23
2019-02-03T02:15:00.739Z,10.73
2019-02-03T02:17:31.418Z,14.33
2019-02-03T02:20:01.986Z,15.87
2019-02-03T02:22:33.274Z,16.10
2019-02-03T02:25:03.727Z,18.20
2019-02-03T02:27:34.295Z,16.23
2019-02-03T02:30:06.601Z,15.73
2019-02-03T02:32:37.334Z,14.00
2019-02-03T02:35:09.109Z,19.50
2019-02-03T02:37:39.722Z,16.63
2019-02-03T02:40:13.887Z,16.97
2019-02-03T02:42:44.690Z,24.03
2019-02-03T02:45:15.785Z,11.70
2019-02-03T02:47:46.712Z,14.33
2019-02-03T02:50:39.159Z,15.30
2019-02-03T02:53:10.323Z,14.03
2019-02-03T02:55:41.838Z,8.63
2019-02-03T02:58:12.985Z,14.93
2019-02-03T03:00:43.638Z,10.53
2019-02-03T03:03:14.863Z,13.83
2019-02-03T03:05:45.471Z,13.87
2019-02-03T03:08:19.055Z,15.00
2019-02-03T03:10:48.347Z,17.53
2019-02-03T03:13:18.924Z,13.90
2019-02-03T03:15:50.656Z,12.50
2019-02-03T03:18:23.214Z,10.10
2019-02-03T03:20:53.773Z,15.83
2019-02-03T03:23:24.835Z,10.60
2019-02-03T03:25:55.285Z,22.80
2019-02-03T03:28:25.619Z,16.67
2019-02-03T03:30:56.621Z,21.70
2019-02-03T03:33:27.303Z,15.00
2019-02-03T03:35:59.231Z,17.80
2019-02-03T03:38:32.070Z,16.67
2019-02-03T03:41:02.250Z,21.40
2019-02-03T03:43:32.871Z,23.90
2019-02-03T03:46:06.506Z,15.47
2019-02-03T03:48:37.501Z,27.60
2019-02-03T03:51:08.675Z,22.63
2019-02-03T03:53:39.388Z,18.60
2019-02-03T03:56:10.919Z,28.47
2019-02-03T03:58:41.806Z,24.93
2019-02-03T04:01:12.935Z,16.57
2019-02-03T04:03:43.473Z,26.30
2019-02-03T04:06:13.809Z,23.10
2019-02-03T04:08:45.665Z,17.97
2019-02-03T04:11:16.404Z,27.10
2019-02-03T04:13:46.986Z,14.70
2019-02-03T04:16:18.964Z,31.40
2019-02-03T04:18:49.835Z,15.07
2019-02-03T04:21:20.886Z,13.60
2019-02-03T04:23:51.630Z,24.07
2019-02-03T04:26:22.493Z,28.17
2019-02-03T04:28:53.140Z,26.07
2019-02-03T04:31:23.872Z,23.63
2019-02-03T04:33:54.690Z,29.17
2019-02-03T04:36:25.304Z,22.73
2019-02-03T04:38:58.277Z,25.60
2019-02-03T04:41:28.448Z,20.10
2019-02-03T04:43:59.379Z,17.20
2019-02-03T04:46:29.794Z,18.53
2019-02-03T04:49:00.408Z,17.77
2019-02-03T04:51:31.061Z,20.57
2019-02-03T04:54:01.694Z,23.30
2019-02-03T04:56:32.493Z,14.63
2019-02-03T04:59:03.222Z,20.00
2019-02-03T05:01:33.972Z,28.07
2019-02-03T05:04:05.002Z,19.40
2019-02-03T05:06:35.843Z,20.57
2019-02-03T05:09:11.136Z,19.13
2019-02-03T05:11:41.820Z,13.17
2019-02-03T05:14:12.646Z,19.00
2019-02-03T05:16:44.102Z,26.90
2019-02-03T05:19:14.607Z,16.53
2019-02-03T05:21:45.341Z,25.53
2019-02-03T05:24:16.199Z,20.73
2019-02-03T05:26:46.733Z,16.23
2019-02-03T05:29:17.352Z,13.60
2019-02-03T05:31:48.446Z,15.07
2019-02-03T05:34:19.491Z,23.03
2019-02-03T05:36:50.004Z,13.30
2019-02-03T05:39:24.905Z,43.27
2019-02-03T05:41:53.135Z,27.13
2019-02-03T05:44:25.062Z,14.20
2019-02-03T05:46:55.549Z,20.17
2019-02-03T05:49:25.963Z,13.67
2019-02-03T05:51:56.669Z,17.57
2019-02-03T05:54:27.077Z,16.13
2019-02-03T05:56:57.978Z,17.40
2019-02-03T05:59:28.523Z,19.27
2019-02-03T06:01:59.356Z,17.40
2019-02-03T06:04:29.926Z,23.20
2019-02-03T06:07:00.535Z,19.23
2019-02-03T06:09:36.714Z,20.03
2019-02-03T06:12:03.320Z,16.30
2019-02-03T06:14:33.832Z,18.23
2019-02-03T06:17:05.952Z,21.97
2019-02-03T06:19:37.785Z,15.03
2019-02-03T06:22:09.006Z,21.80
2019-02-03T06:24:40.118Z,17.20
2019-02-03T06:27:10.476Z,13.40
2019-02-03T06:29:41.306Z,15.00
2019-02-03T06:32:12.173Z,18.57
2019-02-03T06:34:42.804Z,16.20
2019-02-03T06:37:13.419Z,10.57
2019-02-03T06:39:48.593Z,21.57
2019-02-03T06:42:16.708Z,13.27
2019-02-03T06:44:47.436Z,18.10
2019-02-03T06:47:26.594Z,25.03
2019-02-03T06:49:57.229Z,23.37
2019-02-03T06:52:27.733Z,20.20
2019-02-03T06:54:58.495Z,33.20
2019-02-03T06:57:29.395Z,105.87
2019-02-03T06:59:59.953Z,54.77
2019-02-03T07:02:30.433Z,21.00
2019-02-03T07:05:01.215Z,24.60
2019-02-03T07:07:35.628Z,16.13
2019-02-03T07:10:08.372Z,15.97
2019-02-03T07:12:39.079Z,14.97
2019-02-03T07:15:10.572Z,18.93
2019-02-03T07:17:42.336Z,14.83
2019-02-03T07:20:15.665Z,14.13
2019-02-03T07:22:46.606Z,14.60
2019-02-03T07:25:17.045Z,10.47
2019-02-03T07:27:47.672Z,13.57
2019-02-03T07:30:19.422Z,11.30
2019-02-03T07:32:52.398Z,12.33
2019-02-03T07:35:24.441Z,9.03
2019-02-03T07:37:56.039Z,7.43
2019-02-03T07:40:26.919Z,18.10
2019-02-03T07:42:57.650Z,14.70
2019-02-03T07:45:28.664Z,18.60
2019-02-03T07:47:58.982Z,19.70
2019-02-03T07:50:29.514Z,22.20
2019-02-03T07:52:59.731Z,11.10
2019-02-03T07:55:30.488Z,14.70
2019-02-03T07:58:01.452Z,14.83
2019-02-03T08:00:31.862Z,17.77
2019-02-03T08:03:02.225Z,14.87
2019-02-03T08:05:32.793Z,13.40
2019-02-03T08:08:03.755Z,18.10
2019-02-03T08:10:34.421Z,12.80
2019-02-03T08:13:05.548Z,13.57
2019-02-03T08:15:36.225Z,12.60
2019-02-03T08:18:09.772Z,15.77
2019-02-03T08:20:40.432Z,14.07
2019-02-03T08:23:11.192Z,21.23
2019-02-03T08:25:43.192Z,15.70
2019-02-03T08:28:13.927Z,17.03
2019-02-03T08:30:44.686Z,19.70
2019-02-03T08:33:15.466Z,10.23
2019-02-03T08:35:46.163Z,13.97
2019-02-03T08:38:16.765Z,19.43
2019-02-03T08:40:48.135Z,18.17
2019-02-03T08:43:21.789Z,11.30
2019-02-03T08:45:53.898Z,12.63
2019-02-03T08:48:25.567Z,14.27
2019-02-03T08:50:56.358Z,14.30
2019-02-03T08:53:27.354Z,17.70
2019-02-03T08:55:58.155Z,22.80
2019-02-03T08:58:29.564Z,13.57
2019-02-03T09:01:01.810Z,12.03
2019-02-03T09:03:33.050Z,13.50
2019-02-03T09:06:04.049Z,12.20
2019-02-03T09:08:34.676Z,15.07
2019-02-03T09:11:05.425Z,9.33
2019-02-03T09:13:36.902Z,12.60
2019-02-03T09:16:07.597Z,7.93
2019-02-03T09:18:39.390Z,8.50
2019-02-03T09:21:09.790Z,13.33
2019-02-03T09:23:40.241Z,11.70
2019-02-03T09:26:11.299Z,10.53
2019-02-03T09:28:41.927Z,10.60
2019-02-03T09:31:12.912Z,15.33
2019-02-03T09:33:45.940Z,11.00
2019-02-03T09:36:16.517Z,11.47
2019-02-03T09:38:47.011Z,16.73
2019-02-03T09:41:23.026Z,11.80
2019-02-03T09:43:58.135Z,14.20
2019-02-03T09:46:29.487Z,25.77
2019-02-03T09:49:00.056Z,13.70
2019-02-03T09:51:33.286Z,15.73
2019-02-03T09:54:05.001Z,23.07
2019-02-03T09:56:38.957Z,14.03
2019-02-03T09:59:09.886Z,13.97
2019-02-03T10:01:40.565Z,13.90
2019-02-03T10:04:11.297Z,12.10
2019-02-03T10:06:42.341Z,26.43
2019-02-03T10:09:12.960Z,14.17
2019-02-03T10:11:43.836Z,10.13
2019-02-03T10:14:13.966Z,13.37
2019-02-03T10:16:47.469Z,37.60
2019-02-03T10:19:18.220Z,14.77
2019-02-03T10:21:49.018Z,16.47
2019-02-03T10:24:20.099Z,14.77
2019-02-03T10:26:51.349Z,10.93
2019-02-03T10:29:21.590Z,18.43
2019-02-03T10:31:52.298Z,14.37
2019-02-03T10:34:22.937Z,15.10
2019-02-03T10:36:53.344Z,10.30
2019-02-03T10:39:25.148Z,15.10
2019-02-03T10:41:56.028Z,16.00
2019-02-03T10:44:26.662Z,13.77
2019-02-03T10:46:57.490Z,18.73
2019-02-03T10:49:28.249Z,20.70
2019-02-03T10:51:59.388Z,17.30
2019-02-03T10:54:30.664Z,15.73
2019-02-03T10:57:01.959Z,15.13
2019-02-03T10:59:32.542Z,15.00
2019-02-03T11:02:04.029Z,19.70
2019-02-03T11:04:35.393Z,13.47
2019-02-03T11:07:06.484Z,17.30
2019-02-03T11:09:37.000Z,12.60
2019-02-03T11:12:07.691Z,14.67
2019-02-03T11:14:38.671Z,17.37
2019-02-03T11:17:10.435Z,25.33
2019-02-03T11:19:43.454Z,24.00
2019-02-03T11:22:14.949Z,16.37
2019-02-03T11:24:45.755Z,16.70
2019-02-03T11:27:16.339Z,18.40
2019-02-03T11:29:47.089Z,16.73
2019-02-03T11:32:18.150Z,14.07
2019-02-03T11:34:48.546Z,25.57
2019-02-03T11:37:21.010Z,19.10
2019-02-03T11:39:51.714Z,18.70
2019-02-03T11:42:22.193Z,19.37
2019-02-03T11:44:53.110Z,16.83
2019-02-03T11:47:23.848Z,26.40
2019-02-03T11:49:54.486Z,14.13
2019-02-03T11:52:25.719Z,17.57
2019-02-03T11:54:56.725Z,17.27
2019-02-03T11:57:27.589Z,13.10
2019-02-03T11:59:58.387Z,22.53
2019-02-03T12:02:29.342Z,12.13
2019-02-03T12:04:59.486Z,16.93
2019-02-03T12:07:30.055Z,15.13
2019-02-03T12:10:00.430Z,15.57
2019-02-03T12:12:30.980Z,15.30
2019-02-03T12:15:54.479Z,12.53
2019-02-03T12:18:24.999Z,19.93
2019-02-03T12:20:57.084Z,15.37
2019-02-03T12:23:27.553Z,19.27
2019-02-03T12:25:58.068Z,13.10
2019-02-03T12:28:29.933Z,12.73
2019-02-03T12:31:01.581Z,16.57
2019-02-03T12:33:33.422Z,14.40
2019-02-03T12:36:04.552Z,18.20
2019-02-03T12:38:37.599Z,19.77
2019-02-03T12:41:08.566Z,9.70
2019-02-03T12:43:40.154Z,15.77
2019-02-03T12:46:10.915Z,21.53
2019-02-03T12:48:41.617Z,16.97
2019-02-03T12:51:12.529Z,20.30
2019-02-03T12:53:44.268Z,14.80
2019-02-03T12:56:15.355Z,22.13
2019-02-03T12:58:47.514Z,19.30
2019-02-03T13:01:20.829Z,14.63
2019-02-03T13:03:51.681Z,16.23
2019-02-03T13:06:23.411Z,14.27
2019-02-03T13:08:53.828Z,17.07
2019-02-03T13:11:24.770Z,14.30
2019-02-03T13:13:55.768Z,18.57
2019-02-03T13:16:26.146Z,24.07
2019-02-03T13:18:57.343Z,15.00
2019-02-03T13:21:29.002Z,22.07
2019-02-03T13:23:59.863Z,12.20
2019-02-03T13:26:31.047Z,16.70
2019-02-03T13:29:01.398Z,17.47
2019-02-03T13:31:31.919Z,19.97
2019-02-03T13:34:03.725Z,23.13
2019-02-03T13:36:35.185Z,29.83
2019-02-03T13:39:09.025Z,19.23
2019-02-03T13:41:40.068Z,17.27
2019-02-03T13:44:10.427Z,12.30
2019-02-03T13:46:40.952Z,20.87
2019-02-03T13:49:11.398Z,20.80
2019-02-03T13:51:42.112Z,18.67
2019-02-03T13:54:12.902Z,30.53
2019-02-03T13:56:43.510Z,22.03
2019-02-03T13:59:13.977Z,23.13
2019-02-03T14:01:44.493Z,14.30
2019-02-03T14:04:14.984Z,23.87
2019-02-03T14:06:45.476Z,14.07
2019-02-03T14:11:45.604Z,17.40
2019-02-03T14:14:16.122Z,20.90
2019-02-03T14:16:46.719Z,17.67
2019-02-03T14:19:17.433Z,13.87
2019-02-03T14:21:49.452Z,21.73
2019-02-03T14:24:19.993Z,16.93
2019-02-03T14:26:51.317Z,24.63
2019-02-03T14:29:22.009Z,19.77
2019-02-03T14:31:52.409Z,21.37
2019-02-03T14:34:22.796Z,25.00
2019-02-03T14:36:54.202Z,27.47
2019-02-03T14:39:25.192Z,20.50
2019-02-03T14:41:55.913Z,17.40
2019-02-03T14:44:26.898Z,14.60
2019-02-03T14:46:57.529Z,22.97
2019-02-03T14:49:28.411Z,52.97
2019-02-03T14:51:59.153Z,183.27
2019-02-03T14:54:29.624Z,42.33
2019-02-03T14:57:00.520Z,41.03
2019-02-03T14:59:32.390Z,45.13
2019-02-03T15:02:03.769Z,75.27
2019-02-03T15:04:35.250Z,54.60
2019-02-03T15:07:06.622Z,55.50
2019-02-03T15:09:37.676Z,45.03
2019-02-03T15:12:08.336Z,35.67
2019-02-03T15:14:37.679Z,38.73
2019-02-03T15:17:08.740Z,41.77
2019-02-03T15:19:40.452Z,41.27
2019-02-03T15:22:12.005Z,36.23
2019-02-03T15:24:43.229Z,36.50
2019-02-03T15:27:14.034Z,39.40
2019-02-03T15:29:43.178Z,29.73
2019-02-03T15:32:13.927Z,34.13
2019-02-03T15:34:44.418Z,27.70
2019-02-03T15:37:15.021Z,34.17
2019-02-03T15:39:45.376Z,29.10
2019-02-03T15:42:17.199Z,42.07
2019-02-03T15:44:49.819Z,34.10
2019-02-03T15:47:20.226Z,37.83
2019-02-03T15:49:51.350Z,76.40
2019-02-03T15:52:21.786Z,67.70
2019-02-03T15:54:52.943Z,57.53
2019-02-03T15:57:24.067Z,92.00
2019-02-03T15:59:55.206Z,82.90
2019-02-03T16:02:27.470Z,92.93
2019-02-03T16:04:57.747Z,108.10
2019-02-03T16:07:29.250Z,136.23
2019-02-03T16:09:59.716Z,127.27
2019-02-03T16:12:30.289Z,111.43
2019-02-03T16:15:01.159Z,96.57
2019-02-03T16:17:32.101Z,101.77
2019-02-03T16:20:02.550Z,103.13
2019-02-03T16:22:34.577Z,100.97
2019-02-03T16:25:06.128Z,89.83
2019-02-03T16:27:37.248Z,103.37
2019-02-03T16:30:09.573Z,70.07
2019-02-03T16:32:39.755Z,96.10
2019-02-03T16:35:11.214Z,99.40
2019-02-03T16:37:41.890Z,79.10
2019-02-03T16:40:18.143Z,77.70
2019-02-03T16:42:49.303Z,36.77
2019-02-03T16:45:19.917Z,22.30
2019-02-03T16:47:51.149Z,24.10
2019-02-03T16:50:27.952Z,25.97
2019-02-03T16:52:59.417Z,17.17
2019-02-03T16:55:30.849Z,21.70
2019-02-03T16:58:01.738Z,19.93
2019-02-03T17:00:34.080Z,23.70
2019-02-03T17:03:05.558Z,26.53
2019-02-03T17:05:36.616Z,21.27
2019-02-03T17:08:08.371Z,29.53
2019-02-03T17:10:39.655Z,26.77
2019-02-03T17:13:10.709Z,39.13
2019-02-03T17:15:54.476Z,64.70
2019-02-03T17:18:25.412Z,42.63
2019-02-03T17:21:02.179Z,61.63
2019-02-03T17:23:29.959Z,46.30
2019-02-03T17:26:04.215Z,62.60
2019-02-03T17:28:34.821Z,52.03
2019-02-03T17:31:05.527Z,59.40
2019-02-03T17:33:38.038Z,59.93
2019-02-03T17:36:09.197Z,56.73
2019-02-03T17:38:39.689Z,58.57
2019-02-03T17:41:11.180Z,56.50
2019-02-03T17:43:42.274Z,78.10
2019-02-03T17:46:13.674Z,79.87
2019-02-03T17:48:44.191Z,53.77
2019-02-03T17:51:15.122Z,49.17
2019-02-03T17:53:45.820Z,37.30
2019-02-03T17:56:16.737Z,29.00
2019-02-03T17:58:47.375Z,23.00
2019-02-03T18:01:18.335Z,32.23
2019-02-03T18:03:49.470Z,21.57
2019-02-03T18:06:20.214Z,25.20
2019-02-03T18:08:50.700Z,25.83
2019-02-03T18:11:21.996Z,27.47
2019-02-03T18:13:54.254Z,30.03
2019-02-03T18:16:24.845Z,31.00
2019-02-03T18:18:56.159Z,32.20
2019-02-03T18:21:26.646Z,35.03
2019-02-03T18:23:58.352Z,44.83
2019-02-03T18:26:29.217Z,23.73
2019-02-03T18:28:59.839Z,26.93
2019-02-03T18:31:30.662Z,36.03
2019-02-03T18:34:01.139Z,28.17
2019-02-03T18:36:32.999Z,28.70
2019-02-03T18:39:06.093Z,28.23
2019-02-03T18:41:36.833Z,23.70
2019-02-03T18:44:04.829Z,21.87
2019-02-03T18:46:35.689Z,18.67
2019-02-03T18:49:06.701Z,17.60
2019-02-03T18:51:37.491Z,17.73
2019-02-03T18:54:08.551Z,30.87
2019-02-03T18:56:39.526Z,24.90
2019-02-03T18:59:10.743Z,37.47
2019-02-03T19:01:41.361Z,28.20
2019-02-03T19:04:13.696Z,30.47
2019-02-03T19:06:45.995Z,31.03
2019-02-03T19:09:16.888Z,32.80
2019-02-03T19:11:47.974Z,36.90
2019-02-03T19:14:20.326Z,23.37
2019-02-03T19:16:51.327Z,32.13
2019-02-03T19:19:21.916Z,19.90
2019-02-03T19:21:52.761Z,28.53
2019-02-03T19:24:24.495Z,30.67
2019-02-03T19:26:55.124Z,18.40
2019-02-03T19:29:26.041Z,16.57
2019-02-03T19:31:56.673Z,22.13
2019-02-03T19:34:28.895Z,17.40
2019-02-03T19:39:29.196Z,19.10
2019-02-03T19:42:00.270Z,16.90
2019-02-03T19:44:31.038Z,17.63
2019-02-03T19:47:01.526Z,18.53
2019-02-03T19:49:32.585Z,20.50
2019-02-03T19:52:03.720Z,20.80
2019-02-03T19:54:35.258Z,18.33
2019-02-03T19:57:06.184Z,12.67
2019-02-03T19:59:46.526Z,20.00
2019-02-03T20:02:09.662Z,16.23
2019-02-03T20:04:40.536Z,17.80
2019-02-03T20:07:11.596Z,21.50
2019-02-03T20:09:42.560Z,19.50
2019-02-03T20:12:14.339Z,23.87
2019-02-03T20:14:45.319Z,24.90
2019-02-03T20:17:16.174Z,20.37
2019-02-03T20:19:48.152Z,20.10
2019-02-03T20:22:20.433Z,15.10
2019-02-03T20:24:51.917Z,16.47
2019-02-03T20:27:22.691Z,22.03
2019-02-03T20:29:53.468Z,16.03
2019-02-03T20:32:24.512Z,24.97
2019-02-03T20:34:55.254Z,15.47
2019-02-03T20:37:26.704Z,19.27
2019-02-03T20:40:02.006Z,22.27
2019-02-03T20:42:29.998Z,21.30
2019-02-03T20:45:00.722Z,15.63
2019-02-03T20:47:31.892Z,14.17
2019-02-03T20:50:02.761Z,19.47
2019-02-03T20:52:33.647Z,18.47
2019-02-03T20:55:04.370Z,18.10
2019-02-03T20:57:35.605Z,24.03
2019-02-03T21:00:08.576Z,24.07
2019-02-03T21:02:39.532Z,21.53
2019-02-03T21:05:10.579Z,14.80
2019-02-03T21:07:42.174Z,12.53
2019-02-03T21:10:15.204Z,22.50
2019-02-03T21:12:46.624Z,16.33
2019-02-03T21:15:19.471Z,23.00
2019-02-03T21:17:51.136Z,17.63
2019-02-03T21:20:23.752Z,26.87
2019-02-03T21:22:54.449Z,21.00
2019-02-03T21:25:26.457Z,11.23
2019-02-03T21:27:57.540Z,16.20
2019-02-03T21:30:33.818Z,10.13
2019-02-03T21:33:05.150Z,16.87
2019-02-03T21:35:36.181Z,16.83
2019-02-03T21:38:09.060Z,14.83
2019-02-03T21:40:39.885Z,13.90
2019-02-03T21:43:10.614Z,12.77
2019-02-03T21:45:45.039Z,17.20
2019-02-03T21:48:13.795Z,23.13
2019-02-03T21:50:44.304Z,21.67
2019-02-03T21:53:15.372Z,31.00
2019-02-03T21:55:45.774Z,37.33
2019-02-03T21:58:16.463Z,33.53
2019-02-03T22:00:47.303Z,32.37
2019-02-03T22:03:17.868Z,26.47
2019-02-03T22:05:48.583Z,23.50
2019-02-03T22:08:19.481Z,20.60
2019-02-03T22:10:49.870Z,29.23
2019-02-03T22:13:20.878Z,23.80
2019-02-03T22:15:55.830Z,27.43
2019-02-03T22:18:24.254Z,26.63
2019-02-03T22:20:54.737Z,19.90
2019-02-03T22:23:25.247Z,25.30
2019-02-03T22:25:56.479Z,21.63
2019-02-03T22:28:27.131Z,21.33
2019-02-03T22:30:57.815Z,28.23
2019-02-03T22:33:28.930Z,18.63
2019-02-03T22:36:02.563Z,23.10
2019-02-03T22:38:33.282Z,20.80
2019-02-03T22:41:03.914Z,17.47
2019-02-03T22:43:34.427Z,24.27
2019-02-03T22:46:07.278Z,32.37
2019-02-03T22:48:37.804Z,24.70
2019-02-03T22:51:10.627Z,27.57
2019-02-03T22:53:41.148Z,22.97
2019-02-03T22:56:11.732Z,26.03
2019-02-03T22:58:43.824Z,22.80
2019-02-03T23:01:23.931Z,21.07
2019-02-03T23:04:07.926Z,24.13
2019-02-03T23:06:38.723Z,20.60
2019-02-03T23:09:32.862Z,27.27
2019-02-03T23:12:05.502Z,24.37
2019-02-03T23:14:36.286Z,18.07
2019-02-03T23:17:08.866Z,16.80
2019-02-03T23:19:39.337Z,20.07
2019-02-03T23:22:09.860Z,25.53
2019-02-03T23:24:40.517Z,35.30
2019-02-03T23:27:12.739Z,27.40
2019-02-03T23:29:43.579Z,24.57
2019-02-03T23:32:14.244Z,24.57
2019-02-03T23:34:44.562Z,26.13
2019-02-03T23:37:15.582Z,15.80
2019-02-03T23:39:46.740Z,25.13
2019-02-03T23:42:17.702Z,23.53
2019-02-03T23:44:48.348Z,29.93
2019-02-03T23:47:18.929Z,30.07
2019-02-03T23:49:49.588Z,29.00
2019-02-03T23:52:20.704Z,19.77
2019-02-03T23:54:51.274Z,18.93
2019-02-03T23:57:22.136Z,24.87
2019-02-03T23:59:53.142Z,29.10
